sensor_id;sensor_type;location;lat;lon;timestamp;temperature;humidity
14053;DHT22;7101;51.600;7.310;2024-01-06T00:02:03;6.90;99.90
14053;DHT22;7101;51.600;7.310;2024-01-06T00:04:29;6.80;99.90
14053;DHT22;7101;51.600;7.310;2024-01-06T00:06:56;6.80;99.90
14053;DHT22;7101;51.600;7.310;2024-01-06T00:09:23;6.70;99.90
14053;DHT22;7101;51.600;7.310;2024-01-06T00:11:50;6.80;99.90
14053;DHT22;7101;51.600;7.310;2024-01-06T00:14:17;6.80;99.90
14053;DHT22;7101;51.600;7.310;2024-01-06T00:16:43;6.80;99.90
14053;DHT22;7101;51.600;7.310;2024-01-06T00:19:12;6.80;99.90
14053;DHT22;7101;51.600;7.310;2024-01-06T00:21:39;6.80;99.90
14053;DHT22;7101;51.600;7.310;2024-01-06T00:24:05;6.90;99.90
14053;DHT22;7101;51.600;7.310;2024-01-06T00:26:32;6.80;99.90
14053;DHT22;7101;51.600;7.310;2024-01-06T00:28:59;6.80;99.90
14053;DHT22;7101;51.600;7.310;2024-01-06T00:31:26;6.80;99.90
14053;DHT22;7101;51.600;7.310;2024-01-06T00:33:53;6.80;99.90
14053;DHT22;7101;51.600;7.310;2024-01-06T00:36:21;6.80;99.90
14053;DHT22;7101;51.600;7.310;2024-01-06T00:38:48;6.70;99.90
14053;DHT22;7101;51.600;7.310;2024-01-06T00:41:15;6.70;99.90
14053;DHT22;7101;51.600;7.310;2024-01-06T00:43:42;6.80;99.90
14053;DHT22;7101;51.600;7.310;2024-01-06T00:46:09;6.70;99.90
14053;DHT22;7101;51.600;7.310;2024-01-06T00:48:36;6.70;99.90
14053;DHT22;7101;51.600;7.310;2024-01-06T00:51:03;6.70;99.90
14053;DHT22;7101;51.600;7.310;2024-01-06T00:53:31;6.80;99.90
14053;DHT22;7101;51.600;7.310;2024-01-06T00:55:58;6.70;99.90
14053;DHT22;7101;51.600;7.310;2024-01-06T00:58:25;6.80;99.90
14053;DHT22;7101;51.600;7.310;2024-01-06T01:00:51;6.80;99.90
14053;DHT22;7101;51.600;7.310;2024-01-06T01:03:18;6.80;99.90
14053;DHT22;7101;51.600;7.310;2024-01-06T01:05:45;6.80;99.90
14053;DHT22;7101;51.600;7.310;2024-01-06T01:08:12;6.80;99.90
14053;DHT22;7101;51.600;7.310;2024-01-06T01:10:40;6.80;99.90
14053;DHT22;7101;51.600;7.310;2024-01-06T01:13:07;6.80;99.90
14053;DHT22;7101;51.600;7.310;2024-01-06T01:15:34;6.80;99.90
14053;DHT22;7101;51.600;7.310;2024-01-06T01:18:00;6.90;99.90
14053;DHT22;7101;51.600;7.310;2024-01-06T01:20:27;6.80;99.90
14053;DHT22;7101;51.600;7.310;2024-01-06T01:22:54;6.80;99.90
14053;DHT22;7101;51.600;7.310;2024-01-06T01:25:21;6.90;99.90
14053;DHT22;7101;51.600;7.310;2024-01-06T01:27:49;6.90;99.90
14053;DHT22;7101;51.600;7.310;2024-01-06T01:30:15;6.90;99.90
14053;DHT22;7101;51.600;7.310;2024-01-06T01:32:42;6.90;99.90
14053;DHT22;7101;51.600;7.310;2024-01-06T01:35:09;6.90;99.90
14053;DHT22;7101;51.600;7.310;2024-01-06T01:37:36;6.90;99.90
14053;DHT22;7101;51.600;7.310;2024-01-06T01:40:04;6.90;99.90
14053;DHT22;7101;51.600;7.310;2024-01-06T01:42:31;6.80;99.90
14053;DHT22;7101;51.600;7.310;2024-01-06T01:44:59;6.90;99.90
14053;DHT22;7101;51.600;7.310;2024-01-06T01:47:26;6.80;99.90
14053;DHT22;7101;51.600;7.310;2024-01-06T01:49:55;6.80;99.90
14053;DHT22;7101;51.600;7.310;2024-01-06T01:52:22;6.80;99.90
14053;DHT22;7101;51.600;7.310;2024-01-06T01:54:49;6.70;99.90
14053;DHT22;7101;51.600;7.310;2024-01-06T01:57:16;6.70;99.90
14053;DHT22;7101;51.600;7.310;2024-01-06T01:59:43;6.70;99.90
14053;DHT22;7101;51.600;7.310;2024-01-06T02:02:12;6.70;99.90
14053;DHT22;7101;51.600;7.310;2024-01-06T02:04:39;6.70;99.90
14053;DHT22;7101;51.600;7.310;2024-01-06T02:07:05;6.70;99.90
14053;DHT22;7101;51.600;7.310;2024-01-06T02:09:32;6.70;99.90
14053;DHT22;7101;51.600;7.310;2024-01-06T02:11:59;6.60;99.90
14053;DHT22;7101;51.600;7.310;2024-01-06T02:14:26;6.60;99.90
14053;DHT22;7101;51.600;7.310;2024-01-06T02:16:53;6.70;99.90
14053;DHT22;7101;51.600;7.310;2024-01-06T02:19:21;6.70;99.90
14053;DHT22;7101;51.600;7.310;2024-01-06T02:21:51;6.70;99.90
14053;DHT22;7101;51.600;7.310;2024-01-06T02:24:18;6.70;99.90
14053;DHT22;7101;51.600;7.310;2024-01-06T02:26:45;6.70;99.90
14053;DHT22;7101;51.600;7.310;2024-01-06T02:29:12;6.50;99.90
14053;DHT22;7101;51.600;7.310;2024-01-06T02:31:39;6.40;99.90
14053;DHT22;7101;51.600;7.310;2024-01-06T02:34:05;6.40;99.90
14053;DHT22;7101;51.600;7.310;2024-01-06T02:36:32;6.30;99.90
14053;DHT22;7101;51.600;7.310;2024-01-06T02:39:00;6.30;99.90
14053;DHT22;7101;51.600;7.310;2024-01-06T02:41:27;6.20;97.70
14053;DHT22;7101;51.600;7.310;2024-01-06T02:43:54;6.20;1.00
14053;DHT22;7101;51.600;7.310;2024-01-06T02:46:22;6.20;1.00
14053;DHT22;7101;51.600;7.310;2024-01-06T02:48:49;6.10;1.00
14053;DHT22;7101;51.600;7.310;2024-01-06T02:51:16;6.10;1.00
14053;DHT22;7101;51.600;7.310;2024-01-06T02:53:42;6.10;99.90
14053;DHT22;7101;51.600;7.310;2024-01-06T02:56:11;6.10;99.90
14053;DHT22;7101;51.600;7.310;2024-01-06T02:58:38;6.10;99.90
14053;DHT22;7101;51.600;7.310;2024-01-06T03:01:05;6.00;99.90
14053;DHT22;7101;51.600;7.310;2024-01-06T03:03:32;6.10;99.90
14053;DHT22;7101;51.600;7.310;2024-01-06T03:05:58;6.10;99.90
14053;DHT22;7101;51.600;7.310;2024-01-06T03:08:25;6.10;99.90
14053;DHT22;7101;51.600;7.310;2024-01-06T03:10:52;6.10;99.90
14053;DHT22;7101;51.600;7.310;2024-01-06T03:13:20;6.10;99.90
14053;DHT22;7101;51.600;7.310;2024-01-06T03:15:48;6.10;99.90
14053;DHT22;7101;51.600;7.310;2024-01-06T03:18:16;6.10;99.90
14053;DHT22;7101;51.600;7.310;2024-01-06T03:20:42;6.10;99.90
14053;DHT22;7101;51.600;7.310;2024-01-06T03:23:09;6.10;99.90
14053;DHT22;7101;51.600;7.310;2024-01-06T03:25:36;6.10;99.90
14053;DHT22;7101;51.600;7.310;2024-01-06T03:28:03;6.10;99.90
14053;DHT22;7101;51.600;7.310;2024-01-06T03:30:31;6.00;99.90
14053;DHT22;7101;51.600;7.310;2024-01-06T03:32:58;6.00;99.90
14053;DHT22;7101;51.600;7.310;2024-01-06T03:35:25;6.00;99.90
14053;DHT22;7101;51.600;7.310;2024-01-06T03:37:52;5.90;1.00
14053;DHT22;7101;51.600;7.310;2024-01-06T03:40:19;5.90;99.90
14053;DHT22;7101;51.600;7.310;2024-01-06T03:42:45;5.80;99.90
14053;DHT22;7101;51.600;7.310;2024-01-06T03:45:13;5.70;1.00
14053;DHT22;7101;51.600;7.310;2024-01-06T03:47:41;5.70;1.00
14053;DHT22;7101;51.600;7.310;2024-01-06T03:50:08;5.70;1.00
14053;DHT22;7101;51.600;7.310;2024-01-06T03:52:37;5.70;1.00
14053;DHT22;7101;51.600;7.310;2024-01-06T03:55:05;5.70;1.00
14053;DHT22;7101;51.600;7.310;2024-01-06T03:57:32;5.70;1.00
14053;DHT22;7101;51.600;7.310;2024-01-06T03:59:59;5.70;1.00
14053;DHT22;7101;51.600;7.310;2024-01-06T04:02:29;5.70;1.00
14053;DHT22;7101;51.600;7.310;2024-01-06T04:04:57;5.80;1.00
14053;DHT22;7101;51.600;7.310;2024-01-06T04:07:24;5.70;1.00
14053;DHT22;7101;51.600;7.310;2024-01-06T04:09:51;5.80;1.00
14053;DHT22;7101;51.600;7.310;2024-01-06T04:12:17;5.80;1.00
14053;DHT22;7101;51.600;7.310;2024-01-06T04:14:44;5.70;1.00
14053;DHT22;7101;51.600;7.310;2024-01-06T04:17:10;5.70;1.00
14053;DHT22;7101;51.600;7.310;2024-01-06T04:19:37;5.70;1.00
14053;DHT22;7101;51.600;7.310;2024-01-06T04:22:05;5.70;1.00
14053;DHT22;7101;51.600;7.310;2024-01-06T04:24:32;5.70;1.00
14053;DHT22;7101;51.600;7.310;2024-01-06T04:27:03;5.70;1.00
14053;DHT22;7101;51.600;7.310;2024-01-06T04:29:30;5.80;1.00
14053;DHT22;7101;51.600;7.310;2024-01-06T04:31:56;5.70;1.00
14053;DHT22;7101;51.600;7.310;2024-01-06T04:34:23;5.70;1.00
14053;DHT22;7101;51.600;7.310;2024-01-06T04:36:50;5.60;1.00
14053;DHT22;7101;51.600;7.310;2024-01-06T04:39:18;5.50;1.00
14053;DHT22;7101;51.600;7.310;2024-01-06T04:41:45;5.50;1.00
14053;DHT22;7101;51.600;7.310;2024-01-06T04:44:11;5.50;1.00
14053;DHT22;7101;51.600;7.310;2024-01-06T04:46:38;5.50;1.00
14053;DHT22;7101;51.600;7.310;2024-01-06T04:49:05;5.40;1.00
14053;DHT22;7101;51.600;7.310;2024-01-06T04:51:35;5.30;1.00
14053;DHT22;7101;51.600;7.310;2024-01-06T04:54:02;5.30;1.00
14053;DHT22;7101;51.600;7.310;2024-01-06T04:56:30;5.40;1.00
14053;DHT22;7101;51.600;7.310;2024-01-06T04:58:57;5.30;1.00
14053;DHT22;7101;51.600;7.310;2024-01-06T05:01:24;5.30;1.00
14053;DHT22;7101;51.600;7.310;2024-01-06T05:03:51;5.30;1.00
14053;DHT22;7101;51.600;7.310;2024-01-06T05:06:17;5.30;1.00
14053;DHT22;7101;51.600;7.310;2024-01-06T05:08:44;5.30;1.00
14053;DHT22;7101;51.600;7.310;2024-01-06T05:11:11;5.30;1.00
14053;DHT22;7101;51.600;7.310;2024-01-06T05:13:39;5.30;1.00
14053;DHT22;7101;51.600;7.310;2024-01-06T05:16:07;5.30;1.00
14053;DHT22;7101;51.600;7.310;2024-01-06T05:18:34;5.20;1.00
14053;DHT22;7101;51.600;7.310;2024-01-06T05:21:02;5.30;1.00
14053;DHT22;7101;51.600;7.310;2024-01-06T05:23:29;5.20;60.20
14053;DHT22;7101;51.600;7.310;2024-01-06T05:25:56;5.30;99.90
14053;DHT22;7101;51.600;7.310;2024-01-06T05:28:22;5.30;96.60
14053;DHT22;7101;51.600;7.310;2024-01-06T05:30:51;5.30;99.90
14053;DHT22;7101;51.600;7.310;2024-01-06T05:33:17;5.20;99.90
14053;DHT22;7101;51.600;7.310;2024-01-06T05:35:44;5.20;99.90
14053;DHT22;7101;51.600;7.310;2024-01-06T05:38:11;5.30;99.90
14053;DHT22;7101;51.600;7.310;2024-01-06T05:40:39;5.20;99.90
14053;DHT22;7101;51.600;7.310;2024-01-06T05:43:05;5.20;99.90
14053;DHT22;7101;51.600;7.310;2024-01-06T05:45:32;5.20;99.90
14053;DHT22;7101;51.600;7.310;2024-01-06T05:48:08;5.10;99.90
14053;DHT22;7101;51.600;7.310;2024-01-06T05:50:35;5.00;99.90
14053;DHT22;7101;51.600;7.310;2024-01-06T05:53:02;5.10;99.90
14053;DHT22;7101;51.600;7.310;2024-01-06T05:55:29;5.10;99.90
14053;DHT22;7101;51.600;7.310;2024-01-06T05:57:56;5.10;99.90
14053;DHT22;7101;51.600;7.310;2024-01-06T06:00:22;5.00;99.90
14053;DHT22;7101;51.600;7.310;2024-01-06T06:02:49;5.00;99.90
14053;DHT22;7101;51.600;7.310;2024-01-06T06:05:17;4.90;99.90
14053;DHT22;7101;51.600;7.310;2024-01-06T06:07:45;5.00;99.90
14053;DHT22;7101;51.600;7.310;2024-01-06T06:10:12;5.00;99.90
14053;DHT22;7101;51.600;7.310;2024-01-06T06:12:41;5.00;99.90
14053;DHT22;7101;51.600;7.310;2024-01-06T06:15:08;5.00;99.90
14053;DHT22;7101;51.600;7.310;2024-01-06T06:17:36;4.90;99.90
14053;DHT22;7101;51.600;7.310;2024-01-06T06:20:03;4.80;99.90
14053;DHT22;7101;51.600;7.310;2024-01-06T06:22:33;4.80;99.90
14053;DHT22;7101;51.600;7.310;2024-01-06T06:25:00;4.80;99.90
14053;DHT22;7101;51.600;7.310;2024-01-06T06:27:27;4.80;99.90
14053;DHT22;7101;51.600;7.310;2024-01-06T06:29:54;4.80;99.90
14053;DHT22;7101;51.600;7.310;2024-01-06T06:32:22;4.90;99.90
14053;DHT22;7101;51.600;7.310;2024-01-06T06:34:49;4.80;99.90
14053;DHT22;7101;51.600;7.310;2024-01-06T06:37:15;4.90;99.90
14053;DHT22;7101;51.600;7.310;2024-01-06T06:39:43;4.80;99.90
14053;DHT22;7101;51.600;7.310;2024-01-06T06:42:10;4.70;99.90
14053;DHT22;7101;51.600;7.310;2024-01-06T06:44:38;4.70;99.90
14053;DHT22;7101;51.600;7.310;2024-01-06T06:47:04;4.60;99.90
14053;DHT22;7101;51.600;7.310;2024-01-06T06:49:31;4.70;99.90
14053;DHT22;7101;51.600;7.310;2024-01-06T06:51:58;4.80;99.90
14053;DHT22;7101;51.600;7.310;2024-01-06T06:54:25;4.70;99.90
14053;DHT22;7101;51.600;7.310;2024-01-06T06:56:53;4.70;99.90
14053;DHT22;7101;51.600;7.310;2024-01-06T06:59:20;4.60;99.90
14053;DHT22;7101;51.600;7.310;2024-01-06T07:01:46;4.60;99.90
14053;DHT22;7101;51.600;7.310;2024-01-06T07:04:14;4.60;99.90
14053;DHT22;7101;51.600;7.310;2024-01-06T07:06:40;4.60;99.90
14053;DHT22;7101;51.600;7.310;2024-01-06T07:09:07;4.60;99.90
14053;DHT22;7101;51.600;7.310;2024-01-06T07:11:34;4.50;99.90
14053;DHT22;7101;51.600;7.310;2024-01-06T07:14:02;4.50;99.90
14053;DHT22;7101;51.600;7.310;2024-01-06T07:16:29;4.60;99.90
14053;DHT22;7101;51.600;7.310;2024-01-06T07:18:56;4.60;99.90
14053;DHT22;7101;51.600;7.310;2024-01-06T07:21:23;4.60;99.90
14053;DHT22;7101;51.600;7.310;2024-01-06T07:23:50;4.50;99.90
14053;DHT22;7101;51.600;7.310;2024-01-06T07:26:16;4.50;99.90
14053;DHT22;7101;51.600;7.310;2024-01-06T07:28:43;4.50;99.90
14053;DHT22;7101;51.600;7.310;2024-01-06T07:31:11;4.50;99.90
14053;DHT22;7101;51.600;7.310;2024-01-06T07:33:38;4.40;99.90
14053;DHT22;7101;51.600;7.310;2024-01-06T07:36:06;4.20;99.90
14053;DHT22;7101;51.600;7.310;2024-01-06T07:38:33;4.10;99.90
14053;DHT22;7101;51.600;7.310;2024-01-06T07:40:59;4.10;99.90
14053;DHT22;7101;51.600;7.310;2024-01-06T07:43:26;4.20;99.90
14053;DHT22;7101;51.600;7.310;2024-01-06T07:45:53;4.20;99.90
14053;DHT22;7101;51.600;7.310;2024-01-06T07:48:22;4.10;99.90
14053;DHT22;7101;51.600;7.310;2024-01-06T07:50:49;4.20;99.90
14053;DHT22;7101;51.600;7.310;2024-01-06T07:53:16;4.20;99.90
14053;DHT22;7101;51.600;7.310;2024-01-06T07:55:43;4.20;99.90
14053;DHT22;7101;51.600;7.310;2024-01-06T07:58:10;4.20;99.90
14053;DHT22;7101;51.600;7.310;2024-01-06T08:00:37;4.10;99.90
14053;DHT22;7101;51.600;7.310;2024-01-06T08:03:04;4.30;99.90
14053;DHT22;7101;51.600;7.310;2024-01-06T08:05:33;4.30;99.90
14053;DHT22;7101;51.600;7.310;2024-01-06T08:07:59;4.20;99.90
14053;DHT22;7101;51.600;7.310;2024-01-06T08:10:26;4.30;99.90
14053;DHT22;7101;51.600;7.310;2024-01-06T08:12:53;4.40;99.90
14053;DHT22;7101;51.600;7.310;2024-01-06T08:15:20;4.40;99.90
14053;DHT22;7101;51.600;7.310;2024-01-06T08:17:47;4.40;99.90
14053;DHT22;7101;51.600;7.310;2024-01-06T08:20:13;4.30;99.90
14053;DHT22;7101;51.600;7.310;2024-01-06T08:22:42;4.10;99.90
14053;DHT22;7101;51.600;7.310;2024-01-06T08:25:09;4.20;99.90
14053;DHT22;7101;51.600;7.310;2024-01-06T08:27:36;4.20;99.90
14053;DHT22;7101;51.600;7.310;2024-01-06T08:30:04;4.20;99.90
14053;DHT22;7101;51.600;7.310;2024-01-06T08:32:31;4.30;99.90
14053;DHT22;7101;51.600;7.310;2024-01-06T08:34:58;4.30;99.90
14053;DHT22;7101;51.600;7.310;2024-01-06T08:37:25;4.10;91.80
14053;DHT22;7101;51.600;7.310;2024-01-06T08:39:55;4.10;68.20
14053;DHT22;7101;51.600;7.310;2024-01-06T08:42:21;4.00;81.60
14053;DHT22;7101;51.600;7.310;2024-01-06T08:44:49;4.10;86.70
14053;DHT22;7101;51.600;7.310;2024-01-06T08:47:16;4.20;98.00
14053;DHT22;7101;51.600;7.310;2024-01-06T08:49:43;4.10;28.20
14053;DHT22;7101;51.600;7.310;2024-01-06T08:52:12;4.00;3.00
14053;DHT22;7101;51.600;7.310;2024-01-06T08:54:39;4.00;1.00
14053;DHT22;7101;51.600;7.310;2024-01-06T08:57:07;3.90;1.00
14053;DHT22;7101;51.600;7.310;2024-01-06T08:59:35;3.90;1.00
14053;DHT22;7101;51.600;7.310;2024-01-06T09:02:02;3.80;1.00
14053;DHT22;7101;51.600;7.310;2024-01-06T09:04:29;3.90;1.00
14053;DHT22;7101;51.600;7.310;2024-01-06T09:06:56;3.90;1.00
14053;DHT22;7101;51.600;7.310;2024-01-06T09:09:23;4.00;1.00
14053;DHT22;7101;51.600;7.310;2024-01-06T09:11:50;3.90;1.00
14053;DHT22;7101;51.600;7.310;2024-01-06T09:14:19;3.90;1.00
14053;DHT22;7101;51.600;7.310;2024-01-06T09:16:46;4.00;1.00
14053;DHT22;7101;51.600;7.310;2024-01-06T09:19:13;4.10;1.00
14053;DHT22;7101;51.600;7.310;2024-01-06T09:21:40;4.10;8.10
14053;DHT22;7101;51.600;7.310;2024-01-06T09:24:06;4.10;1.00
14053;DHT22;7101;51.600;7.310;2024-01-06T09:26:33;4.10;1.00
14053;DHT22;7101;51.600;7.310;2024-01-06T09:29:00;4.10;1.00
14053;DHT22;7101;51.600;7.310;2024-01-06T09:31:29;4.00;1.00
14053;DHT22;7101;51.600;7.310;2024-01-06T09:34:00;4.00;1.00
14053;DHT22;7101;51.600;7.310;2024-01-06T09:36:27;4.10;1.00
14053;DHT22;7101;51.600;7.310;2024-01-06T09:38:53;4.00;1.00
14053;DHT22;7101;51.600;7.310;2024-01-06T09:41:20;3.90;1.00
14053;DHT22;7101;51.600;7.310;2024-01-06T09:43:47;3.90;1.00
14053;DHT22;7101;51.600;7.310;2024-01-06T09:46:17;4.00;1.00
14053;DHT22;7101;51.600;7.310;2024-01-06T09:48:51;4.00;1.00
14053;DHT22;7101;51.600;7.310;2024-01-06T09:51:20;4.10;1.00
14053;DHT22;7101;51.600;7.310;2024-01-06T09:53:49;4.10;1.00
14053;DHT22;7101;51.600;7.310;2024-01-06T09:56:16;4.10;1.00
14053;DHT22;7101;51.600;7.310;2024-01-06T09:58:44;3.90;1.00
14053;DHT22;7101;51.600;7.310;2024-01-06T10:01:12;3.90;1.00
14053;DHT22;7101;51.600;7.310;2024-01-06T10:03:40;3.90;99.90
14053;DHT22;7101;51.600;7.310;2024-01-06T10:06:08;3.90;99.90
14053;DHT22;7101;51.600;7.310;2024-01-06T10:08:35;4.10;99.90
14053;DHT22;7101;51.600;7.310;2024-01-06T10:11:02;4.00;99.90
14053;DHT22;7101;51.600;7.310;2024-01-06T10:13:29;3.90;99.90
14053;DHT22;7101;51.600;7.310;2024-01-06T10:15:56;3.80;99.90
14053;DHT22;7101;51.600;7.310;2024-01-06T10:18:25;3.90;99.90
14053;DHT22;7101;51.600;7.310;2024-01-06T10:20:52;3.90;99.90
14053;DHT22;7101;51.600;7.310;2024-01-06T10:23:22;3.80;99.90
14053;DHT22;7101;51.600;7.310;2024-01-06T10:25:52;3.80;99.90
14053;DHT22;7101;51.600;7.310;2024-01-06T10:28:20;3.70;99.90
14053;DHT22;7101;51.600;7.310;2024-01-06T10:30:47;3.70;99.90
14053;DHT22;7101;51.600;7.310;2024-01-06T10:33:14;3.80;99.90
14053;DHT22;7101;51.600;7.310;2024-01-06T10:35:41;3.70;99.90
14053;DHT22;7101;51.600;7.310;2024-01-06T10:38:08;3.70;99.90
14053;DHT22;7101;51.600;7.310;2024-01-06T10:40:37;3.70;99.90
14053;DHT22;7101;51.600;7.310;2024-01-06T10:43:05;3.80;99.90
14053;DHT22;7101;51.600;7.310;2024-01-06T10:45:32;3.80;99.90
14053;DHT22;7101;51.600;7.310;2024-01-06T10:47:59;3.70;99.90
14053;DHT22;7101;51.600;7.310;2024-01-06T10:50:29;3.70;99.90
14053;DHT22;7101;51.600;7.310;2024-01-06T10:52:56;3.60;99.90
14053;DHT22;7101;51.600;7.310;2024-01-06T10:55:26;3.50;99.90
14053;DHT22;7101;51.600;7.310;2024-01-06T10:57:55;3.50;99.90
14053;DHT22;7101;51.600;7.310;2024-01-06T11:00:23;3.40;99.90
14053;DHT22;7101;51.600;7.310;2024-01-06T11:02:50;3.50;99.90
14053;DHT22;7101;51.600;7.310;2024-01-06T11:05:19;3.50;99.90
14053;DHT22;7101;51.600;7.310;2024-01-06T11:07:46;3.50;99.90
14053;DHT22;7101;51.600;7.310;2024-01-06T11:10:18;3.60;99.90
14053;DHT22;7101;51.600;7.310;2024-01-06T11:12:45;3.60;99.90
14053;DHT22;7101;51.600;7.310;2024-01-06T11:15:38;3.60;99.90
14053;DHT22;7101;51.600;7.310;2024-01-06T11:18:05;3.60;99.90
14053;DHT22;7101;51.600;7.310;2024-01-06T11:20:33;3.70;99.90
14053;DHT22;7101;51.600;7.310;2024-01-06T11:23:18;3.70;99.90
14053;DHT22;7101;51.600;7.310;2024-01-06T11:25:46;3.70;99.90
14053;DHT22;7101;51.600;7.310;2024-01-06T11:28:13;3.70;99.90
14053;DHT22;7101;51.600;7.310;2024-01-06T11:30:41;3.70;99.90
14053;DHT22;7101;51.600;7.310;2024-01-06T11:33:08;3.70;99.90
14053;DHT22;7101;51.600;7.310;2024-01-06T11:35:37;3.60;99.90
14053;DHT22;7101;51.600;7.310;2024-01-06T11:38:07;3.70;99.90
14053;DHT22;7101;51.600;7.310;2024-01-06T11:40:35;3.60;99.90
14053;DHT22;7101;51.600;7.310;2024-01-06T11:43:04;3.60;99.90
14053;DHT22;7101;51.600;7.310;2024-01-06T11:45:31;3.60;99.90
14053;DHT22;7101;51.600;7.310;2024-01-06T11:48:01;3.50;99.90
14053;DHT22;7101;51.600;7.310;2024-01-06T11:50:29;3.60;99.90
14053;DHT22;7101;51.600;7.310;2024-01-06T11:52:56;3.70;99.90
14053;DHT22;7101;51.600;7.310;2024-01-06T11:55:23;3.70;99.90
14053;DHT22;7101;51.600;7.310;2024-01-06T11:57:53;3.70;99.90
14053;DHT22;7101;51.600;7.310;2024-01-06T12:00:20;3.70;99.90
14053;DHT22;7101;51.600;7.310;2024-01-06T12:02:47;3.60;99.90
14053;DHT22;7101;51.600;7.310;2024-01-06T12:05:16;3.50;99.90
14053;DHT22;7101;51.600;7.310;2024-01-06T12:07:52;3.30;99.90
14053;DHT22;7101;51.600;7.310;2024-01-06T12:10:20;3.10;99.90
14053;DHT22;7101;51.600;7.310;2024-01-06T12:12:55;3.10;99.90
14053;DHT22;7101;51.600;7.310;2024-01-06T12:15:23;3.10;99.90
14053;DHT22;7101;51.600;7.310;2024-01-06T12:17:50;3.10;99.90
14053;DHT22;7101;51.600;7.310;2024-01-06T12:20:19;3.20;99.90
14053;DHT22;7101;51.600;7.310;2024-01-06T12:22:46;3.20;99.90
14053;DHT22;7101;51.600;7.310;2024-01-06T12:25:14;3.10;99.90
14053;DHT22;7101;51.600;7.310;2024-01-06T12:27:42;3.10;99.90
14053;DHT22;7101;51.600;7.310;2024-01-06T12:30:12;3.00;99.90
14053;DHT22;7101;51.600;7.310;2024-01-06T12:32:41;3.10;99.90
14053;DHT22;7101;51.600;7.310;2024-01-06T12:35:09;3.10;99.90
14053;DHT22;7101;51.600;7.310;2024-01-06T12:37:37;3.20;99.90
14053;DHT22;7101;51.600;7.310;2024-01-06T12:40:05;3.10;99.90
14053;DHT22;7101;51.600;7.310;2024-01-06T12:42:33;3.00;99.90
14053;DHT22;7101;51.600;7.310;2024-01-06T12:44:59;3.00;99.90
14053;DHT22;7101;51.600;7.310;2024-01-06T12:47:26;2.90;99.90
14053;DHT22;7101;51.600;7.310;2024-01-06T12:49:53;3.00;99.90
14053;DHT22;7101;51.600;7.310;2024-01-06T12:52:20;3.00;99.90
14053;DHT22;7101;51.600;7.310;2024-01-06T12:54:48;2.90;99.90
14053;DHT22;7101;51.600;7.310;2024-01-06T12:57:15;3.00;99.90
14053;DHT22;7101;51.600;7.310;2024-01-06T12:59:42;3.00;99.90
14053;DHT22;7101;51.600;7.310;2024-01-06T13:02:09;3.00;99.90
14053;DHT22;7101;51.600;7.310;2024-01-06T13:04:37;3.00;99.90
14053;DHT22;7101;51.600;7.310;2024-01-06T13:07:04;2.90;99.90
14053;DHT22;7101;51.600;7.310;2024-01-06T13:09:31;3.00;99.90
14053;DHT22;7101;51.600;7.310;2024-01-06T13:12:01;2.90;99.90
14053;DHT22;7101;51.600;7.310;2024-01-06T13:14:28;2.90;99.90
14053;DHT22;7101;51.600;7.310;2024-01-06T13:16:55;2.90;99.90
14053;DHT22;7101;51.600;7.310;2024-01-06T13:19:23;2.90;99.90
14053;DHT22;7101;51.600;7.310;2024-01-06T13:21:50;3.00;99.90
14053;DHT22;7101;51.600;7.310;2024-01-06T13:24:17;3.00;99.90
14053;DHT22;7101;51.600;7.310;2024-01-06T13:26:43;2.80;99.90
14053;DHT22;7101;51.600;7.310;2024-01-06T13:29:13;2.70;99.90
14053;DHT22;7101;51.600;7.310;2024-01-06T13:31:39;2.90;99.90
14053;DHT22;7101;51.600;7.310;2024-01-06T13:34:07;2.90;99.90
14053;DHT22;7101;51.600;7.310;2024-01-06T13:36:34;2.90;99.90
14053;DHT22;7101;51.600;7.310;2024-01-06T13:39:01;2.80;99.90
14053;DHT22;7101;51.600;7.310;2024-01-06T13:41:29;2.80;99.90
14053;DHT22;7101;51.600;7.310;2024-01-06T13:43:56;2.90;99.90
14053;DHT22;7101;51.600;7.310;2024-01-06T13:46:25;2.80;99.90
14053;DHT22;7101;51.600;7.310;2024-01-06T13:48:51;2.80;99.90
14053;DHT22;7101;51.600;7.310;2024-01-06T13:51:18;2.90;99.90
14053;DHT22;7101;51.600;7.310;2024-01-06T13:53:45;2.90;99.90
14053;DHT22;7101;51.600;7.310;2024-01-06T13:56:12;2.90;99.90
14053;DHT22;7101;51.600;7.310;2024-01-06T13:58:39;2.90;99.90
14053;DHT22;7101;51.600;7.310;2024-01-06T14:01:06;2.90;99.90
14053;DHT22;7101;51.600;7.310;2024-01-06T14:03:37;2.80;99.90
14053;DHT22;7101;51.600;7.310;2024-01-06T14:06:04;2.70;99.90
14053;DHT22;7101;51.600;7.310;2024-01-06T14:08:32;2.80;99.90
14053;DHT22;7101;51.600;7.310;2024-01-06T14:10:58;2.70;99.90
14053;DHT22;7101;51.600;7.310;2024-01-06T14:13:25;2.70;99.90
14053;DHT22;7101;51.600;7.310;2024-01-06T14:15:52;2.60;99.90
14053;DHT22;7101;51.600;7.310;2024-01-06T14:18:19;2.60;99.90
14053;DHT22;7101;51.600;7.310;2024-01-06T14:20:47;2.60;99.90
14053;DHT22;7101;51.600;7.310;2024-01-06T14:23:14;2.50;99.90
14053;DHT22;7101;51.600;7.310;2024-01-06T14:25:41;2.50;99.90
14053;DHT22;7101;51.600;7.310;2024-01-06T14:28:08;2.50;99.90
14053;DHT22;7101;51.600;7.310;2024-01-06T14:30:35;2.50;99.90
14053;DHT22;7101;51.600;7.310;2024-01-06T14:33:01;2.50;99.90
14053;DHT22;7101;51.600;7.310;2024-01-06T14:35:28;2.40;99.90
14053;DHT22;7101;51.600;7.310;2024-01-06T14:37:56;2.40;99.90
14053;DHT22;7101;51.600;7.310;2024-01-06T14:40:23;2.40;99.90
14053;DHT22;7101;51.600;7.310;2024-01-06T14:42:50;2.40;99.90
14053;DHT22;7101;51.600;7.310;2024-01-06T14:45:17;2.40;99.90
14053;DHT22;7101;51.600;7.310;2024-01-06T14:47:44;2.50;99.90
14053;DHT22;7101;51.600;7.310;2024-01-06T14:50:11;2.50;99.90
14053;DHT22;7101;51.600;7.310;2024-01-06T14:52:37;2.60;99.90
14053;DHT22;7101;51.600;7.310;2024-01-06T14:55:07;2.60;99.90
14053;DHT22;7101;51.600;7.310;2024-01-06T14:57:35;2.60;99.90
14053;DHT22;7101;51.600;7.310;2024-01-06T15:00:02;2.60;99.90
14053;DHT22;7101;51.600;7.310;2024-01-06T15:02:29;2.60;99.90
14053;DHT22;7101;51.600;7.310;2024-01-06T15:04:56;2.50;99.90
14053;DHT22;7101;51.600;7.310;2024-01-06T15:07:23;2.50;99.90
14053;DHT22;7101;51.600;7.310;2024-01-06T15:09:50;2.40;99.90
14053;DHT22;7101;51.600;7.310;2024-01-06T15:12:18;2.30;99.90
14053;DHT22;7101;51.600;7.310;2024-01-06T15:14:45;2.40;99.90
14053;DHT22;7101;51.600;7.310;2024-01-06T15:17:11;2.40;99.90
14053;DHT22;7101;51.600;7.310;2024-01-06T15:19:38;2.30;99.90
14053;DHT22;7101;51.600;7.310;2024-01-06T15:22:06;2.30;99.90
14053;DHT22;7101;51.600;7.310;2024-01-06T15:24:33;2.20;99.90
14053;DHT22;7101;51.600;7.310;2024-01-06T15:26:59;2.20;99.90
14053;DHT22;7101;51.600;7.310;2024-01-06T15:29:28;2.20;99.90
14053;DHT22;7101;51.600;7.310;2024-01-06T15:31:54;2.30;99.90
14053;DHT22;7101;51.600;7.310;2024-01-06T15:34:22;2.30;99.90
14053;DHT22;7101;51.600;7.310;2024-01-06T15:36:49;2.30;99.90
14053;DHT22;7101;51.600;7.310;2024-01-06T15:39:16;2.30;99.90
14053;DHT22;7101;51.600;7.310;2024-01-06T15:41:43;2.30;99.90
14053;DHT22;7101;51.600;7.310;2024-01-06T15:44:10;2.30;99.90
14053;DHT22;7101;51.600;7.310;2024-01-06T15:46:39;2.30;99.90
14053;DHT22;7101;51.600;7.310;2024-01-06T15:49:06;2.30;99.90
14053;DHT22;7101;51.600;7.310;2024-01-06T15:51:33;2.20;99.90
14053;DHT22;7101;51.600;7.310;2024-01-06T15:53:59;2.20;99.90
14053;DHT22;7101;51.600;7.310;2024-01-06T15:56:26;2.30;99.90
14053;DHT22;7101;51.600;7.310;2024-01-06T15:58:53;2.30;99.90
14053;DHT22;7101;51.600;7.310;2024-01-06T16:01:22;2.40;99.90
14053;DHT22;7101;51.600;7.310;2024-01-06T16:03:50;2.30;99.90
14053;DHT22;7101;51.600;7.310;2024-01-06T16:06:17;2.30;99.90